createdAt,value
2018-07-10T15:08:30.624Z,18.10
2018-07-10T15:10:59.128Z,18.00
2018-07-10T15:13:27.637Z,17.80
2018-07-10T15:16:02.815Z,17.70
2018-07-10T15:18:36.683Z,17.70
2018-07-10T15:21:05.251Z,17.60
2018-07-10T15:23:33.774Z,17.50
2018-07-10T15:26:02.357Z,17.40
2018-07-10T15:28:30.901Z,17.30
2018-07-10T15:30:59.756Z,17.30
2018-07-10T15:33:28.284Z,17.30
2018-07-10T15:35:56.860Z,17.20
2018-07-10T15:38:25.986Z,17.30
2018-07-10T15:40:54.804Z,17.30
2018-07-10T15:43:23.527Z,17.30
2018-07-10T15:45:52.053Z,17.20
2018-07-10T15:48:20.569Z,17.10
2018-07-10T15:50:49.132Z,17.00
2018-07-10T15:53:17.634Z,17.10
2018-07-10T15:55:46.180Z,17.10
2018-07-10T15:58:14.709Z,17.10
2018-07-10T16:00:43.493Z,17.10
2018-07-10T16:03:12.078Z,17.10
2018-07-10T16:05:40.724Z,17.00
2018-07-10T16:08:13.229Z,16.90
2018-07-10T16:10:42.998Z,16.90
2018-07-10T16:13:11.719Z,16.90
2018-07-10T16:15:43.282Z,16.90
2018-07-10T16:18:12.046Z,16.90
2018-07-10T16:20:46.546Z,16.90
2018-07-10T16:25:44.526Z,17.10
2018-07-10T16:28:17.136Z,17.20
2018-07-10T16:30:48.866Z,17.20
2018-07-10T16:33:23.738Z,17.20
2018-07-10T16:35:52.373Z,17.20
2018-07-10T16:38:21.012Z,17.20
2018-07-10T16:40:50.780Z,17.10
2018-07-10T16:43:25.118Z,17.10
2018-07-10T16:45:54.235Z,17.10
2018-07-10T16:48:46.664Z,17.20
2018-07-10T16:51:24.148Z,17.30
2018-07-10T16:53:59.104Z,17.30
2018-07-10T16:56:27.669Z,17.40
2018-07-10T16:58:57.570Z,17.40
2018-07-10T17:01:27.146Z,17.50
2018-07-10T17:03:57.441Z,17.40
2018-07-10T17:06:26.040Z,17.40
2018-07-10T17:08:54.589Z,17.40
2018-07-10T17:11:23.213Z,17.40
2018-07-10T17:16:25.206Z,17.40
2018-07-10T17:18:53.728Z,17.30
2018-07-10T17:21:22.405Z,17.20
2018-07-10T17:23:51.553Z,17.20
2018-07-10T17:26:20.170Z,17.10
2018-07-10T17:28:50.097Z,17.10
2018-07-10T17:31:18.586Z,17.10
2018-07-10T17:33:47.291Z,17.10
2018-07-10T17:36:15.765Z,17.10
2018-07-10T17:38:44.826Z,17.00
2018-07-10T17:41:13.365Z,17.10
2018-07-10T17:43:41.937Z,17.00
2018-07-10T17:46:10.782Z,17.10
2018-07-10T17:48:39.333Z,17.00
2018-07-10T17:51:07.926Z,17.00
2018-07-10T17:53:36.528Z,17.00
2018-07-10T17:56:05.060Z,17.00
2018-07-10T17:58:34.463Z,17.10
2018-07-10T18:01:03.107Z,17.10
2018-07-10T18:03:32.452Z,17.10
2018-07-10T18:06:01.020Z,17.10
2018-07-10T18:08:29.552Z,17.20
2018-07-10T18:10:58.033Z,17.30
2018-07-10T18:13:26.529Z,17.30
2018-07-10T18:15:55.050Z,17.20
2018-07-10T18:18:23.895Z,17.20
2018-07-10T18:20:52.404Z,17.20
2018-07-10T18:23:20.966Z,17.20
2018-07-10T18:25:49.504Z,17.30
2018-07-10T18:28:18.829Z,17.30
2018-07-10T18:30:47.356Z,17.30
2018-07-10T18:33:15.841Z,17.30
2018-07-10T18:35:44.369Z,17.20
2018-07-10T18:38:12.889Z,17.20
2018-07-10T18:40:41.414Z,17.20
2018-07-10T18:43:09.917Z,17.10
2018-07-10T18:45:38.472Z,17.10
2018-07-10T18:48:07.042Z,17.20
2018-07-10T18:50:35.541Z,17.00
2018-07-10T18:53:04.096Z,17.10
2018-07-10T18:55:32.642Z,17.00
2018-07-10T18:58:06.478Z,17.00
2018-07-10T19:00:48.378Z,17.00
2018-07-10T19:03:16.968Z,17.00
2018-07-10T19:05:49.245Z,17.00
2018-07-10T19:08:17.860Z,17.00
2018-07-10T19:10:47.192Z,17.00
2018-07-10T19:13:16.713Z,17.00
2018-07-10T19:15:47.041Z,17.00
2018-07-10T19:18:15.964Z,17.10
2018-07-10T19:21:50.991Z,17.10
2018-07-10T19:24:19.540Z,17.20
2018-07-10T19:26:48.104Z,17.10
2018-07-10T19:29:27.652Z,17.10
2018-07-10T19:31:56.209Z,17.10
2018-07-10T19:34:24.742Z,17.10
2018-07-10T19:36:53.295Z,17.10
2018-07-10T19:39:21.802Z,17.10
2018-07-10T19:41:50.341Z,17.00
2018-07-10T19:44:18.873Z,17.00
2018-07-10T19:46:47.421Z,17.00
2018-07-10T19:49:17.592Z,17.00
2018-07-10T19:51:49.335Z,17.00
2018-07-10T19:54:17.904Z,17.10
2018-07-10T19:56:46.684Z,17.10
2018-07-10T19:59:16.322Z,17.10
2018-07-10T20:01:55.781Z,17.10
2018-07-10T20:04:46.736Z,17.10
2018-07-10T20:07:50.068Z,17.10
2018-07-10T20:10:26.873Z,17.20
2018-07-10T20:13:00.212Z,17.20
2018-07-10T20:15:41.357Z,17.20
2018-07-10T20:20:20.323Z,17.10
2018-07-10T20:25:00.193Z,17.10
2018-07-10T20:27:54.024Z,17.20
2018-07-10T20:32:36.819Z,17.10
2018-07-10T20:35:16.798Z,17.10
2018-07-10T20:37:48.440Z,17.10
2018-07-10T20:40:27.636Z,17.00
2018-07-10T20:42:56.208Z,17.00
2018-07-10T20:45:25.693Z,17.00
2018-07-10T20:47:56.645Z,17.00
2018-07-10T20:50:33.203Z,17.00
2018-07-10T20:53:08.736Z,17.00
2018-07-10T20:55:44.592Z,17.00
2018-07-10T21:00:49.134Z,16.90
2018-07-10T21:04:27.587Z,16.90
2018-07-10T21:06:58.172Z,16.90
2018-07-10T21:10:41.856Z,16.80
2018-07-10T21:13:14.312Z,16.70
2018-07-10T21:16:56.590Z,16.70
2018-07-10T21:19:30.893Z,16.70
2018-07-10T21:24:16.560Z,16.70
2018-07-10T21:26:50.635Z,16.70
2018-07-10T21:29:25.682Z,16.50
2018-07-10T21:32:00.696Z,16.50
2018-07-10T21:34:37.974Z,16.40
2018-07-10T21:37:24.477Z,16.40
2018-07-10T21:40:05.400Z,16.40
2018-07-10T21:43:00.041Z,16.50
2018-07-10T21:45:34.785Z,16.40
2018-07-10T21:50:20.693Z,16.40
2018-07-10T21:52:49.176Z,16.40
2018-07-10T21:55:17.728Z,16.30
2018-07-10T21:57:46.300Z,16.30
2018-07-10T22:00:14.786Z,16.20
2018-07-10T22:02:43.355Z,16.20
2018-07-10T22:05:11.887Z,16.20
2018-07-10T22:07:40.430Z,16.10
2018-07-10T22:10:09.149Z,16.10
2018-07-10T22:12:43.734Z,16.10
2018-07-10T22:15:12.619Z,16.10
2018-07-10T22:17:42.065Z,16.10
2018-07-10T22:20:10.580Z,16.10
2018-07-10T22:22:39.139Z,16.10
2018-07-10T22:25:08.707Z,16.20
2018-07-10T22:30:14.949Z,16.10
2018-07-10T22:32:48.695Z,16.20
2018-07-10T22:35:17.222Z,16.20
2018-07-10T22:37:45.795Z,16.10
2018-07-10T22:40:15.668Z,16.10
2018-07-10T22:42:44.231Z,16.10
2018-07-10T22:45:12.790Z,16.20
2018-07-10T22:47:42.526Z,16.10
2018-07-10T22:50:16.669Z,16.10
2018-07-10T22:52:52.640Z,16.10
2018-07-10T22:55:24.849Z,16.00
2018-07-10T22:57:55.221Z,16.10
2018-07-10T23:00:32.132Z,16.00
2018-07-10T23:03:01.572Z,16.00
2018-07-10T23:05:30.105Z,15.90
2018-07-10T23:07:58.585Z,15.90
2018-07-10T23:10:27.624Z,15.90
2018-07-10T23:12:56.111Z,15.80
2018-07-10T23:15:24.664Z,15.80
2018-07-10T23:17:53.293Z,15.80
2018-07-10T23:20:22.349Z,15.70
2018-07-10T23:22:55.927Z,15.70
2018-07-10T23:25:26.711Z,15.60
2018-07-10T23:28:05.717Z,15.50
2018-07-10T23:30:38.569Z,15.60
2018-07-10T23:33:11.069Z,15.60
2018-07-10T23:35:41.318Z,15.50
2018-07-10T23:38:17.994Z,15.50
2018-07-10T23:40:46.572Z,15.50
2018-07-10T23:43:15.644Z,15.50
2018-07-10T23:45:45.540Z,15.40
2018-07-10T23:48:14.112Z,15.30
2018-07-10T23:50:42.630Z,15.30
2018-07-10T23:53:20.737Z,15.30
2018-07-10T23:55:50.060Z,15.40
2018-07-10T23:58:18.620Z,15.30
